createdAt,value
2019-01-02T03:32:38.949Z,100776.85
2019-01-02T03:35:13.844Z,100780.13
2019-01-02T03:37:50.854Z,100776.36
2019-01-02T03:40:23.078Z,100773.44
2019-01-02T03:42:54.009Z,100778.73
2019-01-02T03:45:25.183Z,100778.78
2019-01-02T03:47:58.508Z,100768.32
2019-01-02T03:50:32.188Z,100770.47
2019-01-02T03:53:08.286Z,100770.80
2019-01-02T03:55:41.943Z,100771.03
2019-01-02T03:58:15.791Z,100783.64
2019-01-02T04:00:49.607Z,100781.45
2019-01-02T04:03:21.678Z,100781.46
2019-01-02T04:05:57.291Z,100785.27
2019-01-02T04:08:31.362Z,100773.06
2019-01-02T04:11:03.953Z,100775.68
2019-01-02T04:13:35.222Z,100780.84
2019-01-02T04:16:10.032Z,100788.00
2019-01-02T04:18:50.306Z,100787.21
2019-01-02T04:21:22.241Z,100790.83
2019-01-02T04:23:53.021Z,100779.50
2019-01-02T04:26:25.899Z,100787.80
2019-01-02T04:29:02.413Z,100791.36
2019-01-02T04:31:38.930Z,100793.23
2019-01-02T04:34:09.793Z,100789.35
2019-01-02T04:36:40.733Z,100783.67
2019-01-02T04:39:11.524Z,100793.13
2019-01-02T04:41:42.262Z,100785.20
2019-01-02T04:44:16.030Z,100797.36
2019-01-02T04:46:46.974Z,100792.48
2019-01-02T04:49:17.879Z,100799.53
2019-01-02T04:51:51.682Z,100802.61
2019-01-02T04:54:22.502Z,100810.98
2019-01-02T04:56:53.307Z,100825.48
2019-01-02T04:59:25.845Z,100819.42
2019-01-02T05:02:02.037Z,100821.69
2019-01-02T05:04:32.872Z,100807.72
2019-01-02T05:07:05.492Z,100814.72
2019-01-02T05:09:36.422Z,100814.83
2019-01-02T05:12:07.414Z,100813.92
2019-01-02T05:14:39.158Z,100817.41
2019-01-02T05:17:10.030Z,100814.73
2019-01-02T05:19:43.832Z,100810.88
2019-01-02T05:22:14.605Z,100821.35
2019-01-02T05:24:48.714Z,100825.29
2019-01-02T05:27:19.721Z,100821.34
2019-01-02T05:29:52.827Z,100830.06
2019-01-02T05:32:24.639Z,100833.16
2019-01-02T05:34:55.417Z,100838.47
2019-01-02T05:37:27.359Z,100845.44
2019-01-02T05:39:58.137Z,100840.53
2019-01-02T05:42:28.989Z,100846.21
2019-01-02T05:44:59.934Z,100845.81
2019-01-02T05:47:30.881Z,100834.49
2019-01-02T05:50:01.621Z,100851.95
2019-01-02T05:52:32.379Z,100855.02
2019-01-02T05:55:03.128Z,100856.77
2019-01-02T05:57:33.928Z,100876.39
2019-01-02T06:00:05.149Z,100882.55
2019-01-02T06:02:35.941Z,100896.11
2019-01-02T06:05:06.835Z,100942.77
2019-01-02T06:07:37.613Z,100954.59
2019-01-02T06:10:12.943Z,100975.75
2019-01-02T06:12:43.824Z,100980.27
2019-01-02T06:15:17.124Z,100996.58
2019-01-02T06:17:47.901Z,100972.61
2019-01-02T06:20:19.837Z,100956.21
2019-01-02T06:22:50.734Z,100964.45
2019-01-02T06:25:21.490Z,100961.42
2019-01-02T06:27:52.293Z,100967.35
2019-01-02T06:30:23.096Z,100971.34
2019-01-02T06:32:53.870Z,100963.98
2019-01-02T06:35:24.671Z,100975.72
2019-01-02T06:37:55.439Z,100980.59
2019-01-02T06:40:26.202Z,100984.55
2019-01-02T06:42:56.947Z,100990.27
2019-01-02T06:45:27.740Z,100993.37
2019-01-02T06:47:58.515Z,100992.13
2019-01-02T06:50:29.376Z,100989.63
2019-01-02T06:53:00.182Z,100988.80
2019-01-02T06:55:30.950Z,100988.03
2019-01-02T06:58:01.698Z,101002.47
2019-01-02T07:00:37.126Z,100999.55
2019-01-02T07:03:07.861Z,101004.47
2019-01-02T07:05:38.645Z,101007.20
2019-01-02T07:08:09.370Z,101006.56
2019-01-02T07:10:40.198Z,101019.91
2019-01-02T07:13:10.982Z,101018.72
2019-01-02T07:15:41.795Z,101017.06
2019-01-02T07:18:12.557Z,101029.70
2019-01-02T07:20:43.345Z,101041.52
2019-01-02T07:23:14.095Z,101051.58
2019-01-02T07:25:44.911Z,101049.09
2019-01-02T07:28:15.695Z,101053.08
2019-01-02T07:30:46.513Z,101056.19
2019-01-02T07:33:19.717Z,101061.41
2019-01-02T07:36:35.182Z,101066.28
2019-01-02T07:40:08.487Z,101067.20
2019-01-02T07:43:21.163Z,101094.20
2019-01-02T07:46:40.534Z,101090.81
2019-01-02T07:50:08.905Z,101102.61
2019-01-02T07:53:37.294Z,101109.64
2019-01-02T07:56:56.645Z,101113.75
2019-01-02T08:00:10.285Z,101120.38
2019-01-02T08:03:34.258Z,101123.95
2019-01-02T08:07:28.420Z,101121.13
2019-01-02T08:11:05.713Z,101123.39
2019-01-02T08:14:47.457Z,101136.89
2019-01-02T08:17:59.586Z,101139.96
2019-01-02T08:21:38.326Z,101149.07
2019-01-02T08:24:42.025Z,101149.07
2019-01-02T08:28:10.751Z,101149.77
2019-01-02T08:31:54.136Z,101164.11
2019-01-02T08:35:14.705Z,101164.45
2019-01-02T08:38:45.170Z,101172.22
2019-01-02T08:42:37.130Z,101179.17
2019-01-02T08:45:59.797Z,101183.97
2019-01-02T08:49:40.361Z,101192.92
2019-01-02T08:53:11.783Z,101209.87
2019-01-02T08:56:28.178Z,101218.02
2019-01-02T08:59:48.165Z,101224.16
2019-01-02T09:02:51.923Z,101232.05
2019-01-02T09:06:20.763Z,101242.50
2019-01-02T09:09:45.398Z,101243.77
2019-01-02T09:13:05.692Z,101255.22
2019-01-02T09:16:52.595Z,101259.98
2019-01-02T09:20:25.488Z,101262.17
2019-01-02T09:24:13.996Z,101270.55
2019-01-02T09:27:41.106Z,101275.56
2019-01-02T09:31:21.888Z,101282.80
2019-01-02T09:35:07.282Z,101290.37
2019-01-02T09:38:35.992Z,101289.98
2019-01-02T09:41:39.262Z,101291.64
2019-01-02T09:45:01.272Z,101287.76
2019-01-02T09:48:42.455Z,101311.36
2019-01-02T09:52:26.540Z,101304.29
2019-01-02T09:55:38.291Z,101305.67
2019-01-02T09:59:13.723Z,101318.28
2019-01-02T10:02:40.633Z,101311.97
2019-01-02T10:05:59.575Z,101326.02
2019-01-02T10:09:29.343Z,101334.27
2019-01-02T10:12:58.867Z,101327.86
2019-01-02T10:16:40.318Z,101326.98
2019-01-02T10:19:58.725Z,101351.73
2019-01-02T10:23:13.412Z,101344.90
2019-01-02T10:26:46.745Z,101344.94
2019-01-02T10:30:12.526Z,101350.94
2019-01-02T10:33:40.100Z,101364.55
2019-01-02T10:37:03.852Z,101363.95
2019-01-02T10:40:55.173Z,101381.67
2019-01-02T10:44:47.211Z,101389.13
2019-01-02T10:48:05.771Z,101401.79
2019-01-02T10:51:33.091Z,101392.89
2019-01-02T10:55:06.402Z,101412.92
2019-01-02T10:58:36.405Z,101418.20
2019-01-02T11:02:11.308Z,101422.91
2019-01-02T11:05:27.122Z,101423.80
2019-01-02T11:09:11.684Z,101436.45
2019-01-02T11:12:12.487Z,101436.84
2019-01-02T11:15:57.954Z,101449.75
2019-01-02T11:19:14.223Z,101447.64
2019-01-02T11:22:25.828Z,101438.19
2019-01-02T11:26:29.886Z,101454.61
2019-01-02T11:29:34.694Z,101449.75
2019-01-02T11:33:02.277Z,101454.55
2019-01-02T11:36:20.720Z,101459.66
2019-01-02T11:39:55.743Z,101474.17
2019-01-02T11:43:14.736Z,101475.28
2019-01-02T11:45:45.554Z,101461.80
2019-01-02T11:48:16.295Z,101469.34
2019-01-02T11:50:50.588Z,101487.89
2019-01-02T11:53:23.447Z,101494.48
2019-01-02T11:55:55.921Z,101513.15
2019-01-02T11:58:27.564Z,101504.42
2019-01-02T12:00:58.331Z,101506.72
2019-01-02T12:03:29.131Z,101512.00
2019-01-02T12:06:01.268Z,101536.05
2019-01-02T12:08:49.526Z,101509.50
2019-01-02T12:11:29.233Z,101525.30
2019-01-02T12:14:04.559Z,101525.28
2019-01-02T12:16:37.791Z,101530.56
2019-01-02T12:19:20.925Z,101531.72
2019-01-02T12:22:21.983Z,101525.33
2019-01-02T12:26:13.596Z,101560.81
2019-01-02T12:29:33.203Z,101567.16
2019-01-02T12:32:04.035Z,101581.27
2019-01-02T12:34:34.792Z,101569.30
2019-01-02T12:37:05.624Z,101575.16
2019-01-02T12:39:36.384Z,101581.00
2019-01-02T12:42:07.463Z,101590.04
2019-01-02T12:44:38.210Z,101596.01
2019-01-02T12:47:09.041Z,101591.98
2019-01-02T12:49:39.961Z,101595.75
2019-01-02T12:52:52.099Z,101606.66
2019-01-02T12:55:25.947Z,101617.83
2019-01-02T12:58:04.591Z,101614.16
2019-01-02T13:00:44.816Z,101615.98
2019-01-02T13:04:00.726Z,101629.47
2019-01-02T13:07:28.140Z,101631.48
2019-01-02T13:10:40.519Z,101627.04
2019-01-02T13:13:53.664Z,101629.27
2019-01-02T13:17:12.983Z,101635.73
2019-01-02T13:20:39.094Z,101639.00
2019-01-02T13:24:01.470Z,101646.00
2019-01-02T13:27:20.095Z,101647.13
2019-01-02T13:30:44.323Z,101651.81
2019-01-02T13:33:43.560Z,101653.82
2019-01-02T13:36:55.170Z,101656.91
2019-01-02T13:40:31.104Z,101655.23
2019-01-02T13:43:40.768Z,101655.52
2019-01-02T13:46:51.966Z,101648.95
2019-01-02T13:50:11.488Z,101659.30
2019-01-02T13:52:42.566Z,101666.71
2019-01-02T13:55:19.039Z,101667.82
2019-01-02T13:57:49.846Z,101677.41
2019-01-02T14:00:20.570Z,101692.15
2019-01-02T14:02:51.378Z,101679.33
2019-01-02T14:05:24.317Z,101688.08
2019-01-02T14:07:55.123Z,101681.63
2019-01-02T14:10:25.966Z,101701.63
2019-01-02T14:12:56.738Z,101701.83
2019-01-02T14:15:27.544Z,101698.51
2019-01-02T14:17:58.399Z,101696.61
2019-01-02T14:20:29.186Z,101703.81
2019-01-02T14:23:00.000Z,101700.80
2019-01-02T14:25:30.786Z,101712.07
2019-01-02T14:28:01.606Z,101711.36
2019-01-02T14:30:32.367Z,101722.47
2019-01-02T14:33:03.166Z,101711.03
2019-01-02T14:35:33.961Z,101705.23
2019-01-02T14:38:04.703Z,101709.16
2019-01-02T14:40:35.467Z,101705.31
2019-01-02T14:43:06.218Z,101710.37
2019-01-02T14:45:37.027Z,101726.07
2019-01-02T14:48:07.822Z,101718.78
2019-01-02T14:50:38.602Z,101714.92
2019-01-02T14:53:09.398Z,101736.46
2019-01-02T14:55:40.145Z,101743.81
2019-01-02T14:58:10.952Z,101732.50
2019-01-02T15:00:42.976Z,101739.31
2019-01-02T15:03:13.774Z,101741.06
2019-01-02T15:05:44.550Z,101738.31
2019-01-02T15:08:15.357Z,101742.17
2019-01-02T15:10:46.184Z,101749.66
2019-01-02T15:13:16.977Z,101754.12
2019-01-02T15:15:47.800Z,101757.96
2019-01-02T15:18:18.586Z,101754.64
2019-01-02T15:20:49.344Z,101760.20
2019-01-02T15:23:20.157Z,101773.14
2019-01-02T15:25:50.939Z,101767.52
2019-01-02T15:28:21.698Z,101776.81
2019-01-02T15:30:52.501Z,101788.64
2019-01-02T15:33:23.252Z,101775.66
2019-01-02T15:35:54.073Z,101778.63
2019-01-02T15:38:24.829Z,101781.08
2019-01-02T15:40:55.647Z,101779.41
2019-01-02T15:43:26.449Z,101777.33
2019-01-02T15:45:57.301Z,101790.23
2019-01-02T15:48:28.160Z,101784.90
2019-01-02T15:50:58.918Z,101790.17
2019-01-02T15:53:30.868Z,101790.59
2019-01-02T15:56:01.712Z,101799.67
2019-01-02T15:58:32.474Z,101803.72
2019-01-02T16:01:03.344Z,101810.73
2019-01-02T16:03:34.101Z,101804.30
2019-01-02T16:06:05.009Z,101812.83
2019-01-02T16:08:35.870Z,101813.34
2019-01-02T16:11:06.759Z,101821.02
2019-01-02T16:13:37.547Z,101837.39
2019-01-02T16:16:08.447Z,101844.86
2019-01-02T16:18:39.265Z,101849.19
2019-01-02T16:21:11.787Z,101858.86
2019-01-02T16:23:42.656Z,101868.78
2019-01-02T16:26:13.400Z,101864.48
2019-01-02T16:28:44.279Z,101863.84
2019-01-02T16:31:15.113Z,101866.24
2019-01-02T16:33:45.937Z,101869.88
2019-01-02T16:36:16.889Z,101879.75
2019-01-02T16:38:51.012Z,101875.17
2019-01-02T16:41:21.867Z,101881.34
2019-01-02T16:43:52.636Z,101890.66
2019-01-02T16:46:23.713Z,101894.61
2019-01-02T16:48:54.666Z,101896.55
2019-01-02T16:51:25.922Z,101912.30
2019-01-02T16:53:56.706Z,101907.08
2019-01-02T16:56:27.528Z,101904.86
2019-01-02T16:58:58.309Z,101910.81
2019-01-02T17:01:29.425Z,101917.05
2019-01-02T17:04:00.213Z,101916.59
2019-01-02T17:06:31.183Z,101922.94
2019-01-02T17:09:01.945Z,101922.37
2019-01-02T17:11:36.082Z,101924.90
2019-01-02T17:14:06.630Z,101926.94
2019-01-02T17:16:37.449Z,101922.44
2019-01-02T17:19:08.231Z,101938.68
2019-01-02T17:21:39.095Z,101935.25
2019-01-02T17:24:09.961Z,101937.59
2019-01-02T17:29:46.058Z,101947.77
2019-01-02T17:32:16.822Z,101945.20
2019-01-02T17:34:47.714Z,101952.59
2019-01-02T17:37:21.532Z,101959.00
2019-01-02T17:40:10.216Z,101958.29
2019-01-02T17:47:30.048Z,101971.63
2019-01-02T17:50:34.984Z,101966.21
2019-01-02T17:53:58.928Z,101971.94
2019-01-02T17:56:29.816Z,101968.81
2019-01-02T17:59:00.664Z,101986.55
2019-01-02T18:01:31.513Z,101979.30
2019-01-02T18:04:02.324Z,101986.71
2019-01-02T18:06:33.270Z,101980.75
2019-01-02T18:09:05.568Z,101981.43
2019-01-02T18:11:50.431Z,101986.55
2019-01-02T18:14:27.928Z,101993.16
2019-01-02T18:16:57.711Z,101993.29
2019-01-02T18:19:28.948Z,101990.20
2019-01-02T18:21:59.895Z,101997.87
2019-01-02T18:24:31.144Z,101998.20
2019-01-02T18:27:02.277Z,102002.64
2019-01-02T18:29:33.404Z,102007.38
2019-01-02T18:32:05.001Z,102003.78
2019-01-02T18:34:35.811Z,102006.07
2019-01-02T18:39:52.031Z,102014.84
2019-01-02T18:42:31.382Z,102014.44
2019-01-02T18:45:09.726Z,102015.71
2019-01-02T18:47:40.949Z,102024.25
2019-01-02T18:50:13.281Z,102018.47
2019-01-02T18:52:44.322Z,102026.42
2019-01-02T18:55:16.655Z,102029.20
2019-01-02T18:57:47.514Z,102029.51
2019-01-02T19:00:18.653Z,102035.75
2019-01-02T19:02:51.655Z,102040.42
2019-01-02T19:05:23.860Z,102047.31
2019-01-02T19:07:54.628Z,102042.64
2019-01-02T19:10:26.678Z,102042.09
2019-01-02T19:12:57.675Z,102045.25
2019-01-02T19:15:30.037Z,102045.19
2019-01-02T19:18:07.512Z,102049.05
2019-01-02T19:20:49.035Z,102056.13
2019-01-02T19:23:26.103Z,102064.15
2019-01-02T19:26:03.372Z,102066.76
2019-01-02T19:28:35.855Z,102069.84
2019-01-02T19:31:07.080Z,102074.82
2019-01-02T19:33:44.172Z,102065.94
2019-01-02T19:36:16.310Z,102074.00
2019-01-02T19:39:01.002Z,102070.43
2019-01-02T19:41:31.378Z,102071.25
2019-01-02T19:44:08.446Z,102086.41
2019-01-02T19:46:41.131Z,102088.78
2019-01-02T19:49:12.838Z,102090.84
2019-01-02T19:51:44.156Z,102082.56
2019-01-02T19:54:15.716Z,102087.30
2019-01-02T19:56:48.288Z,102084.34
2019-01-02T19:59:23.705Z,102083.44
2019-01-02T20:01:55.081Z,102087.76
2019-01-02T20:04:28.954Z,102089.67
2019-01-02T20:06:59.777Z,102091.95
2019-01-02T20:09:38.092Z,102097.80
2019-01-02T20:12:12.034Z,102096.35
2019-01-02T20:14:47.304Z,102107.41
2019-01-02T20:17:48.083Z,102101.91
2019-01-02T20:20:33.173Z,102115.97
2019-01-02T20:23:09.627Z,102101.08
2019-01-02T20:25:44.376Z,102111.01
2019-01-02T20:28:39.868Z,102112.13
2019-01-02T20:32:09.022Z,102108.30
2019-01-02T20:34:18.843Z,102116.45
2019-01-02T20:37:34.835Z,102114.92
2019-01-02T20:40:35.613Z,102108.07
2019-01-02T20:43:16.505Z,102116.52
2019-01-02T20:45:52.972Z,102110.27
2019-01-02T20:48:33.784Z,102107.19
2019-01-02T20:51:35.931Z,102106.52
2019-01-02T20:54:49.775Z,102111.17
2019-01-02T21:05:49.215Z,102126.86
2019-01-02T21:09:26.938Z,102125.83
2019-01-02T21:13:20.558Z,102116.64
2019-01-02T21:17:49.199Z,102118.56
2019-01-02T21:32:47.331Z,102119.46
2019-01-02T21:39:11.508Z,102117.45
2019-01-02T21:42:20.483Z,102110.81
2019-01-02T21:44:54.122Z,102112.53
2019-01-02T21:47:28.876Z,102116.96
2019-01-02T21:50:07.266Z,102115.41
2019-01-02T21:52:45.600Z,102121.64
2019-01-02T21:55:24.493Z,102115.73
2019-01-02T21:57:56.943Z,102118.26
2019-01-02T22:00:34.466Z,102130.53
2019-01-02T22:03:08.165Z,102120.20
2019-01-02T22:05:43.537Z,102126.86
2019-01-02T22:08:14.383Z,102117.27
2019-01-02T22:10:45.137Z,102126.98
2019-01-02T22:13:29.323Z,102123.16
2019-01-02T22:16:00.392Z,102125.42
2019-01-02T22:18:35.724Z,102125.42
2019-01-02T22:21:06.571Z,102128.77
2019-01-02T22:28:30.111Z,102131.64
2019-01-02T22:35:04.301Z,102139.12
2019-01-02T22:37:48.434Z,102144.95
2019-01-02T22:40:21.672Z,102141.95
2019-01-02T22:42:57.927Z,102145.22
2019-01-02T22:45:31.343Z,102153.77
2019-01-02T22:48:10.687Z,102149.92
2019-01-02T22:50:48.001Z,102150.81
2019-01-02T22:53:28.617Z,102154.11
2019-01-02T22:56:02.794Z,102161.97
2019-01-02T22:58:36.749Z,102160.11
2019-01-02T23:01:10.790Z,102163.52
2019-01-02T23:03:52.573Z,102165.16
2019-01-02T23:06:41.358Z,102168.37
2019-01-02T23:09:33.071Z,102166.25
2019-01-02T23:12:22.786Z,102165.00
2019-01-02T23:15:12.907Z,102167.92
2019-01-02T23:18:02.726Z,102173.38
2019-01-02T23:20:52.774Z,102176.37
2019-01-02T23:23:42.414Z,102171.67
2019-01-02T23:26:36.812Z,102175.69
2019-01-02T23:29:46.043Z,102178.23
2019-01-02T23:32:40.982Z,102181.64
2019-01-02T23:35:32.374Z,102190.43
2019-01-02T23:38:21.128Z,102189.52
2019-01-02T23:41:13.930Z,102191.56
2019-01-02T23:44:03.734Z,102198.58
2019-01-02T23:46:52.188Z,102202.75
2019-01-02T23:49:46.288Z,102202.75
2019-01-02T23:52:39.186Z,102209.20
2019-01-02T23:55:40.720Z,102218.70
2019-01-02T23:58:39.653Z,102220.48
